createdAt,value
2023-04-02T00:01:00.089Z,11.42
2023-04-02T00:03:26.757Z,11.42
2023-04-02T00:05:53.692Z,11.44
2023-04-02T00:08:20.317Z,11.45
2023-04-02T00:10:46.933Z,11.45
2023-04-02T00:13:13.548Z,11.42
2023-04-02T00:15:40.370Z,11.44
2023-04-02T00:18:07.292Z,11.42
2023-04-02T00:20:33.968Z,11.45
2023-04-02T00:23:00.595Z,11.44
2023-04-02T00:25:27.209Z,11.44
2023-04-02T00:27:53.858Z,11.44
2023-04-02T00:30:20.529Z,11.44
2023-04-02T00:32:47.182Z,11.41
2023-04-02T00:35:13.838Z,11.45
2023-04-02T00:37:40.472Z,11.42
2023-04-02T00:40:07.117Z,11.44
2023-04-02T00:42:33.751Z,11.44
2023-04-02T00:45:00.397Z,11.44
2023-04-02T00:47:27.272Z,11.41
2023-04-02T00:49:53.917Z,11.41
2023-04-02T00:52:20.542Z,11.42
2023-04-02T00:54:47.188Z,11.41
2023-04-02T00:57:13.905Z,11.41
2023-04-02T00:59:40.687Z,11.41
2023-04-02T01:02:07.589Z,11.42
2023-04-02T01:04:34.408Z,11.38
2023-04-02T01:07:01.463Z,11.42
2023-04-02T01:09:28.102Z,11.40
2023-04-02T01:11:54.754Z,11.44
2023-04-02T01:14:21.400Z,11.41
2023-04-02T01:16:48.031Z,11.41
2023-04-02T01:19:14.870Z,11.40
2023-04-02T01:21:41.886Z,11.41
2023-04-02T01:24:08.529Z,11.41
2023-04-02T01:26:35.369Z,11.42
2023-04-02T01:29:02.010Z,11.42
2023-04-02T01:31:28.715Z,11.42
2023-04-02T01:33:55.360Z,11.41
2023-04-02T01:36:22.032Z,11.38
2023-04-02T01:38:48.673Z,11.42
2023-04-02T01:41:18.683Z,11.41
2023-04-02T01:43:45.326Z,11.40
2023-04-02T01:46:11.998Z,11.40
2023-04-02T01:48:38.628Z,11.41
2023-04-02T01:51:05.256Z,11.38
2023-04-02T01:53:31.929Z,11.40
2023-04-02T01:55:58.558Z,11.42
2023-04-02T01:58:25.182Z,11.38
2023-04-02T02:00:51.987Z,11.40
2023-04-02T02:03:18.876Z,11.41
2023-04-02T02:05:45.547Z,11.40
2023-04-02T02:08:12.165Z,11.41
2023-04-02T02:10:38.792Z,11.38
2023-04-02T02:13:05.438Z,11.41
2023-04-02T02:15:32.077Z,11.40
2023-04-02T02:17:59.019Z,11.41
2023-04-02T02:20:25.690Z,11.38
2023-04-02T02:22:52.341Z,11.40
2023-04-02T02:25:19.015Z,11.40
2023-04-02T02:27:45.841Z,11.38
2023-04-02T02:30:12.449Z,11.38
2023-04-02T02:32:39.342Z,11.38
2023-04-02T02:35:06.174Z,11.38
2023-04-02T02:37:33.022Z,11.37
2023-04-02T02:39:59.644Z,11.40
2023-04-02T02:42:26.528Z,11.37
2023-04-02T02:44:53.148Z,11.37
2023-04-02T02:47:19.829Z,11.38
2023-04-02T02:49:46.490Z,11.38
2023-04-02T02:52:13.123Z,11.35
2023-04-02T02:54:39.761Z,11.40
2023-04-02T02:57:06.450Z,11.40
2023-04-02T02:59:33.137Z,11.37
2023-04-02T03:01:59.767Z,11.38
2023-04-02T03:04:26.662Z,11.37
2023-04-02T03:06:53.355Z,11.38
2023-04-02T03:09:20.210Z,11.35
2023-04-02T03:11:46.845Z,11.37
2023-04-02T03:14:13.713Z,11.37
2023-04-02T03:16:40.336Z,11.37
2023-04-02T03:19:07.207Z,11.34
2023-04-02T03:21:33.838Z,11.37
2023-04-02T03:24:00.484Z,11.34
2023-04-02T03:26:27.136Z,11.37
2023-04-02T03:28:53.767Z,11.35
2023-04-02T03:31:20.440Z,11.35
2023-04-02T03:33:47.112Z,11.35
2023-04-02T03:36:13.750Z,11.35
2023-04-02T03:38:40.428Z,11.34
2023-04-02T03:41:07.054Z,11.38
2023-04-02T03:43:33.698Z,11.37
2023-04-02T03:46:00.372Z,11.37
2023-04-02T03:48:27.007Z,11.35
2023-04-02T03:50:53.611Z,11.37
2023-04-02T03:53:20.261Z,11.35
2023-04-02T03:55:46.884Z,11.37
2023-04-02T03:58:13.521Z,11.32
2023-04-02T04:00:40.153Z,11.35
2023-04-02T04:03:06.808Z,11.37
2023-04-02T04:05:33.756Z,11.34
2023-04-02T04:08:00.550Z,11.34
2023-04-02T04:10:27.212Z,11.34
2023-04-02T04:12:54.098Z,11.34
2023-04-02T04:15:20.753Z,11.32
2023-04-02T04:17:47.420Z,11.35
2023-04-02T04:20:14.111Z,11.32
2023-04-02T04:22:40.763Z,11.35
2023-04-02T04:25:07.382Z,11.31
2023-04-02T04:27:34.210Z,11.34
2023-04-02T04:30:01.047Z,11.32
2023-04-02T04:32:27.904Z,11.34
2023-04-02T04:34:54.606Z,11.34
2023-04-02T04:37:21.217Z,11.35
2023-04-02T04:39:47.842Z,11.31
2023-04-02T04:42:14.485Z,11.34
2023-04-02T04:44:41.109Z,11.32
2023-04-02T04:47:07.749Z,11.32
2023-04-02T04:49:34.375Z,11.34
2023-04-02T04:52:01.026Z,11.32
2023-04-02T04:54:27.687Z,11.32
2023-04-02T04:56:54.338Z,11.31
2023-04-02T04:59:20.949Z,11.31
2023-04-02T05:01:47.650Z,11.30
2023-04-02T05:04:14.582Z,11.31
2023-04-02T05:06:41.305Z,11.31
2023-04-02T05:09:08.162Z,11.30
2023-04-02T05:11:34.817Z,11.32
2023-04-02T05:14:01.684Z,11.31
2023-04-02T05:16:28.367Z,11.30
2023-04-02T05:18:55.228Z,11.30
2023-04-02T05:21:21.878Z,11.30
2023-04-02T05:23:48.495Z,11.30
2023-04-02T05:26:15.124Z,11.30
2023-04-02T05:28:41.954Z,11.30
2023-04-02T05:31:08.611Z,11.28
2023-04-02T05:33:35.254Z,11.31
2023-04-02T05:36:02.121Z,11.31
2023-04-02T05:38:28.788Z,11.30
2023-04-02T05:40:55.618Z,11.30
2023-04-02T05:43:22.246Z,11.30
2023-04-02T05:45:49.712Z,11.30
2023-04-02T05:48:16.359Z,11.28
2023-04-02T05:50:43.193Z,11.30
2023-04-02T05:53:10.072Z,11.28
2023-04-02T05:55:37.004Z,11.30
2023-04-02T05:58:29.428Z,11.31
2023-04-02T06:00:50.395Z,11.30
2023-04-02T06:03:17.119Z,11.31
2023-04-02T06:05:43.821Z,11.30
2023-04-02T06:08:10.451Z,11.31
2023-04-02T06:10:37.081Z,11.31
2023-04-02T06:13:03.945Z,11.30
2023-04-02T06:15:30.560Z,11.30
2023-04-02T06:17:57.394Z,11.30
2023-04-02T06:20:24.050Z,11.31
2023-04-02T06:22:50.684Z,11.31
2023-04-02T06:25:17.292Z,11.30
2023-04-02T06:27:43.918Z,11.30
2023-04-02T06:30:10.853Z,11.31
2023-04-02T06:32:37.887Z,11.30
2023-04-02T06:35:04.567Z,11.31
2023-04-02T06:37:33.778Z,11.30
2023-04-02T06:40:00.431Z,11.28
2023-04-02T06:42:27.283Z,11.31
2023-04-02T06:44:53.945Z,11.31
2023-04-02T06:47:20.636Z,11.31
2023-04-02T06:49:47.249Z,11.31
2023-04-02T06:52:13.895Z,11.31
2023-04-02T06:54:40.524Z,11.31
2023-04-02T06:57:07.223Z,11.32
2023-04-02T06:59:33.872Z,11.32
2023-04-02T07:02:00.717Z,11.34
2023-04-02T07:04:27.486Z,11.32
2023-04-02T07:06:54.172Z,11.32
2023-04-02T07:09:20.792Z,11.34
2023-04-02T07:11:47.408Z,11.32
2023-04-02T07:14:14.060Z,11.37
2023-04-02T07:16:40.699Z,11.35
2023-04-02T07:19:07.437Z,11.35
2023-04-02T07:21:34.085Z,11.34
2023-04-02T07:24:00.730Z,11.34
2023-04-02T07:26:27.300Z,11.35
2023-04-02T07:28:53.913Z,11.34
2023-04-02T07:31:20.586Z,11.38
2023-04-02T07:33:47.277Z,11.37
2023-04-02T07:36:13.948Z,11.38
2023-04-02T07:38:40.633Z,11.40
2023-04-02T07:41:07.268Z,11.37
2023-04-02T07:43:33.894Z,11.37
2023-04-02T07:46:00.546Z,11.35
2023-04-02T07:48:27.177Z,11.38
2023-04-02T07:50:53.793Z,11.38
2023-04-02T07:53:20.401Z,11.40
2023-04-02T07:55:47.020Z,11.37
2023-04-02T07:58:13.669Z,11.41
2023-04-02T08:00:40.311Z,11.38
2023-04-02T08:03:07.113Z,11.38
2023-04-02T08:05:33.956Z,11.37
2023-04-02T08:08:00.842Z,11.37
2023-04-02T08:10:27.545Z,11.38
2023-04-02T08:12:54.185Z,11.37
2023-04-02T08:15:20.817Z,11.37
2023-04-02T08:17:47.479Z,11.38
2023-04-02T08:20:14.094Z,11.38
2023-04-02T08:22:41.022Z,11.40
2023-04-02T08:25:07.639Z,11.40
2023-04-02T08:27:34.239Z,11.40
2023-04-02T08:30:00.870Z,11.38
2023-04-02T08:32:27.566Z,11.37
2023-04-02T08:34:54.226Z,11.41
2023-04-02T08:37:20.839Z,11.37
2023-04-02T08:39:47.465Z,11.41
2023-04-02T08:42:14.119Z,11.40
2023-04-02T08:44:40.752Z,11.38
2023-04-02T08:47:07.391Z,11.38
2023-04-02T08:49:34.047Z,11.42
2023-04-02T08:52:00.689Z,11.42
2023-04-02T08:54:27.977Z,11.40
2023-04-02T08:56:54.763Z,11.42
2023-04-02T08:59:21.461Z,11.40
2023-04-02T09:01:48.150Z,11.45
2023-04-02T09:04:14.932Z,11.41
2023-04-02T09:06:41.596Z,11.44
2023-04-02T09:09:08.224Z,11.45
2023-04-02T09:11:34.876Z,11.45
2023-04-02T09:14:01.491Z,11.44
2023-04-02T09:16:28.517Z,11.45
2023-04-02T09:18:55.238Z,11.44
2023-04-02T09:21:22.370Z,11.45
2023-04-02T09:23:49.017Z,11.47
2023-04-02T09:26:15.627Z,11.45
2023-04-02T09:28:42.234Z,11.48
2023-04-02T09:31:08.882Z,11.47
2023-04-02T09:33:35.525Z,11.47
2023-04-02T09:36:02.175Z,11.45
2023-04-02T09:38:28.906Z,11.45
2023-04-02T09:40:55.521Z,11.44
2023-04-02T09:43:22.129Z,11.48
2023-04-02T09:45:48.758Z,11.45
2023-04-02T09:48:15.340Z,11.45
2023-04-02T09:50:41.971Z,11.48
2023-04-02T09:53:08.623Z,11.48
2023-04-02T09:55:35.390Z,11.48
2023-04-02T09:58:02.213Z,11.50
2023-04-02T10:00:39.704Z,11.47
2023-04-02T10:03:08.405Z,11.47
2023-04-02T10:08:04.801Z,11.47
2023-04-02T10:10:31.442Z,11.48
2023-04-02T10:12:58.551Z,11.51
2023-04-02T10:15:25.170Z,11.47
2023-04-02T10:17:51.868Z,11.51
2023-04-02T10:20:18.589Z,11.50
2023-04-02T10:22:45.235Z,11.48
2023-04-02T10:25:11.887Z,11.52
2023-04-02T10:27:38.540Z,11.47
2023-04-02T10:30:05.180Z,11.48
2023-04-02T10:32:31.886Z,11.47
2023-04-02T10:34:58.606Z,11.47
2023-04-02T10:37:25.254Z,11.51
2023-04-02T10:39:51.887Z,11.50
2023-04-02T10:42:18.508Z,11.48
2023-04-02T10:44:45.154Z,11.51
2023-04-02T10:47:11.804Z,11.50
2023-04-02T10:49:38.470Z,11.50
2023-04-02T10:52:05.165Z,11.51
2023-04-02T10:54:31.795Z,11.50
2023-04-02T10:56:58.426Z,11.52
2023-04-02T10:59:25.056Z,11.52
2023-04-02T11:01:51.809Z,11.48
2023-04-02T11:04:18.450Z,11.50
2023-04-02T11:06:45.061Z,11.51
2023-04-02T11:09:11.701Z,11.55
2023-04-02T11:11:38.449Z,11.52
2023-04-02T11:14:05.116Z,11.54
2023-04-02T11:16:31.858Z,11.54
2023-04-02T11:18:58.559Z,11.57
2023-04-02T11:21:25.174Z,11.57
2023-04-02T11:23:51.782Z,11.54
2023-04-02T11:26:18.409Z,11.57
2023-04-02T11:28:45.025Z,11.57
2023-04-02T11:31:11.681Z,11.58
2023-04-02T11:33:41.249Z,11.61
2023-04-02T11:36:10.013Z,11.61
2023-04-02T11:38:36.675Z,11.61
2023-04-02T11:43:51.079Z,11.61
2023-04-02T11:46:17.737Z,11.58
2023-04-02T11:48:44.369Z,11.58
2023-04-02T11:51:11.038Z,11.61
2023-04-02T11:53:37.641Z,11.62
2023-04-02T11:56:04.252Z,11.59
2023-04-02T11:58:30.879Z,11.58
2023-04-02T12:00:57.723Z,11.59
2023-04-02T12:03:24.377Z,11.62
2023-04-02T12:05:51.004Z,11.55
2023-04-02T12:08:17.636Z,11.58
2023-04-02T12:10:44.613Z,11.59
2023-04-02T12:13:11.262Z,11.58
2023-04-02T12:15:38.114Z,11.59
2023-04-02T12:18:04.799Z,11.59
2023-04-02T12:20:31.681Z,11.55
2023-04-02T12:22:58.305Z,11.57
2023-04-02T12:25:24.956Z,11.58
2023-04-02T12:27:51.595Z,11.58
2023-04-02T12:30:18.213Z,11.55
2023-04-02T12:32:44.903Z,11.59
2023-04-02T12:35:11.547Z,11.57
2023-04-02T12:37:38.165Z,11.54
2023-04-02T12:40:04.818Z,11.55
2023-04-02T12:42:31.459Z,11.54
2023-04-02T12:44:58.104Z,11.54
2023-04-02T12:47:24.711Z,11.52
2023-04-02T12:49:51.339Z,11.54
2023-04-02T12:52:17.964Z,11.51
2023-04-02T12:54:44.573Z,11.54
2023-04-02T12:57:11.236Z,11.54
2023-04-02T12:59:38.111Z,11.52
2023-04-02T13:02:04.868Z,11.51
2023-04-02T13:04:31.606Z,11.48
2023-04-02T13:06:58.238Z,11.52
2023-04-02T13:09:26.386Z,11.48
2023-04-02T13:11:53.993Z,11.52
2023-04-02T13:14:20.630Z,11.50
2023-04-02T13:16:47.264Z,11.50
2023-04-02T13:19:13.893Z,11.51
2023-04-02T13:21:40.753Z,11.50
2023-04-02T13:24:07.385Z,11.50
2023-04-02T13:26:34.046Z,11.51
2023-04-02T13:29:00.732Z,11.48
2023-04-02T13:31:27.367Z,11.47
2023-04-02T13:33:54.061Z,11.50
2023-04-02T13:36:20.687Z,11.48
2023-04-02T13:38:47.459Z,11.50
2023-04-02T13:41:14.318Z,11.51
2023-04-02T13:43:40.950Z,11.50
2023-04-02T13:46:07.587Z,11.48
2023-04-02T13:48:34.251Z,11.51
2023-04-02T13:51:00.891Z,11.48
2023-04-02T13:53:27.504Z,11.51
2023-04-02T13:55:54.105Z,11.52
2023-04-02T13:58:20.745Z,11.51
2023-04-02T14:00:47.478Z,11.51
2023-04-02T14:03:14.169Z,11.54
2023-04-02T14:05:40.825Z,11.57
2023-04-02T14:08:07.452Z,11.68
2023-04-02T14:10:34.312Z,11.72
2023-04-02T14:13:00.938Z,11.88
2023-04-02T14:15:27.582Z,11.91
2023-04-02T14:17:54.240Z,11.81
2023-04-02T14:20:20.859Z,11.85
2023-04-02T14:22:47.503Z,11.93
2023-04-02T14:25:14.120Z,12.18
2023-04-02T14:27:40.755Z,12.46
2023-04-02T14:30:07.392Z,12.79
2023-04-02T14:32:34.092Z,12.87
2023-04-02T14:35:00.799Z,12.97
2023-04-02T14:37:27.440Z,13.00
2023-04-02T14:39:54.080Z,13.07
2023-04-02T14:42:20.737Z,13.07
2023-04-02T14:44:47.362Z,12.88
2023-04-02T14:47:13.998Z,12.80
2023-04-02T14:49:40.652Z,12.64
2023-04-02T14:52:07.283Z,12.53
2023-04-02T14:54:33.936Z,12.49
2023-04-02T14:57:00.641Z,12.39
2023-04-02T14:59:27.316Z,12.37
2023-04-02T15:01:53.984Z,12.32
2023-04-02T15:04:20.678Z,12.29
2023-04-02T15:06:47.299Z,12.29
2023-04-02T15:12:00.662Z,12.26
2023-04-02T15:14:27.283Z,12.20
2023-04-02T15:16:53.893Z,12.23
2023-04-02T15:19:20.529Z,12.20
2023-04-02T15:21:57.487Z,12.18
2023-04-02T15:24:26.101Z,12.19
2023-04-02T15:26:52.743Z,12.19
2023-04-02T15:29:28.421Z,12.18
2023-04-02T15:31:56.375Z,12.19
2023-04-02T15:34:23.023Z,12.19
2023-04-02T15:36:50.548Z,12.20
2023-04-02T15:39:17.401Z,12.19
2023-04-02T15:41:44.243Z,12.19
2023-04-02T15:44:10.891Z,12.22
2023-04-02T15:46:37.784Z,12.23
2023-04-02T15:49:04.409Z,12.22
2023-04-02T15:51:31.059Z,12.22
2023-04-02T15:53:57.713Z,12.18
2023-04-02T15:56:26.284Z,12.18
2023-04-02T15:58:53.242Z,12.13
2023-04-02T16:01:20.016Z,12.12
2023-04-02T16:03:46.747Z,12.13
2023-04-02T16:06:13.397Z,12.09
2023-04-02T16:08:40.008Z,12.10
2023-04-02T16:11:07.333Z,12.09
2023-04-02T16:13:34.010Z,12.06
2023-04-02T16:16:00.885Z,12.08
2023-04-02T16:18:27.517Z,12.06
2023-04-02T16:20:54.154Z,12.08
2023-04-02T16:23:20.777Z,12.06
2023-04-02T16:25:47.455Z,12.10
2023-04-02T16:28:14.320Z,12.13
2023-04-02T16:30:40.965Z,12.13
2023-04-02T16:33:07.646Z,12.10
2023-04-02T16:35:43.060Z,12.06
2023-04-02T16:38:10.714Z,12.06
2023-04-02T16:40:37.564Z,12.06
2023-04-02T16:43:04.498Z,12.06
2023-04-02T16:45:31.742Z,12.03
2023-04-02T16:47:58.405Z,12.03
2023-04-02T16:50:25.060Z,12.00
2023-04-02T16:52:51.702Z,12.00
2023-04-02T16:55:18.363Z,12.00
2023-04-02T16:57:44.990Z,11.98
2023-04-02T17:00:11.617Z,11.98
2023-04-02T17:02:38.533Z,11.96
2023-04-02T17:05:05.214Z,11.96
2023-04-02T17:07:32.046Z,11.93
2023-04-02T17:09:58.877Z,11.95
2023-04-02T17:12:25.507Z,11.93
2023-04-02T17:14:52.166Z,11.93
2023-04-02T17:17:18.820Z,11.93
2023-04-02T17:19:45.470Z,11.92
2023-04-02T17:22:12.336Z,11.91
2023-04-02T17:24:39.194Z,11.92
2023-04-02T17:27:05.839Z,11.89
2023-04-02T17:29:32.495Z,11.92
2023-04-02T17:32:01.419Z,11.86
2023-04-02T17:34:28.483Z,11.89
2023-04-02T17:36:55.131Z,11.89
2023-04-02T17:39:21.761Z,11.91
2023-04-02T17:41:48.934Z,11.86
2023-04-02T17:44:15.560Z,11.85
2023-04-02T17:46:42.180Z,11.85
2023-04-02T17:49:09.002Z,11.85
2023-04-02T17:51:35.828Z,11.83
2023-04-02T17:54:02.467Z,11.81
2023-04-02T17:56:29.087Z,11.82
2023-04-02T17:58:55.721Z,11.83
2023-04-02T18:01:22.610Z,11.82
2023-04-02T18:03:49.275Z,11.82
2023-04-02T18:06:15.920Z,11.79
2023-04-02T18:08:42.559Z,11.79
2023-04-02T18:11:09.184Z,11.78
2023-04-02T18:13:35.818Z,11.81
2023-04-02T18:16:02.706Z,11.78
2023-04-02T18:18:29.343Z,11.81
2023-04-02T18:20:56.193Z,11.78
2023-04-02T18:23:22.824Z,11.78
2023-04-02T18:25:49.447Z,11.77
2023-04-02T18:28:16.320Z,11.77
2023-04-02T18:30:42.979Z,11.75
2023-04-02T18:33:09.632Z,11.75
2023-04-02T18:35:36.294Z,11.77
2023-04-02T18:38:02.986Z,11.74
2023-04-02T18:40:29.627Z,11.72
2023-04-02T18:42:56.250Z,11.74
2023-04-02T18:45:22.872Z,11.74
2023-04-02T18:47:49.791Z,11.72
2023-04-02T18:50:16.426Z,11.74
2023-04-02T18:52:43.300Z,11.71
2023-04-02T18:55:09.935Z,11.74
2023-04-02T18:57:36.588Z,11.72
2023-04-02T19:00:03.245Z,11.71
2023-04-02T19:02:29.909Z,11.71
2023-04-02T19:04:56.571Z,11.71
2023-04-02T19:07:23.208Z,11.72
2023-04-02T19:09:49.844Z,11.68
2023-04-02T19:12:16.476Z,11.72
2023-04-02T19:14:43.108Z,11.71
2023-04-02T19:17:09.773Z,11.68
2023-04-02T19:19:36.629Z,11.74
2023-04-02T19:22:03.757Z,11.72
2023-04-02T19:24:31.254Z,11.69
2023-04-02T19:26:57.893Z,11.69
2023-04-02T19:29:24.549Z,11.69
2023-04-02T19:31:51.223Z,11.69
2023-04-02T19:34:17.881Z,11.69
2023-04-02T19:36:44.496Z,11.68
2023-04-02T19:39:11.153Z,11.67
2023-04-02T19:41:37.789Z,11.68
2023-04-02T19:44:04.424Z,11.65
2023-04-02T19:46:31.065Z,11.65
2023-04-02T19:48:58.274Z,11.67
2023-04-02T19:51:24.891Z,11.68
2023-04-02T19:53:51.747Z,11.64
2023-04-02T19:56:18.390Z,11.67
2023-04-02T19:58:45.207Z,11.67
2023-04-02T20:01:12.161Z,11.65
2023-04-02T20:03:38.854Z,11.67
2023-04-02T20:06:05.752Z,11.64
2023-04-02T20:08:32.400Z,11.67
2023-04-02T20:10:59.036Z,11.62
2023-04-02T20:13:26.387Z,11.65
2023-04-02T20:15:53.069Z,11.62
2023-04-02T20:18:19.924Z,11.61
2023-04-02T20:20:46.540Z,11.62
2023-04-02T20:23:13.374Z,11.64
2023-04-02T20:25:40.087Z,11.62
2023-04-02T20:28:06.731Z,11.62
2023-04-02T20:33:20.623Z,11.61
2023-04-02T20:35:47.354Z,11.61
2023-04-02T20:38:14.000Z,11.59
2023-04-02T20:40:40.853Z,11.62
2023-04-02T20:43:07.520Z,11.61
2023-04-02T20:48:19.597Z,11.59
2023-04-02T20:50:46.433Z,11.59
2023-04-02T20:53:13.048Z,11.59
2023-04-02T20:55:39.679Z,11.61
2023-04-02T20:58:06.330Z,11.58
2023-04-02T21:00:33.376Z,11.59
2023-04-02T21:03:00.558Z,11.58
2023-04-02T21:05:27.283Z,11.58
2023-04-02T21:07:53.918Z,11.59
2023-04-02T21:10:20.529Z,11.58
2023-04-02T21:12:47.169Z,11.61
2023-04-02T21:15:13.783Z,11.58
2023-04-02T21:17:40.660Z,11.61
2023-04-02T21:20:07.332Z,11.59
2023-04-02T21:22:33.973Z,11.57
2023-04-02T21:25:00.590Z,11.57
2023-04-02T21:27:27.219Z,11.58
2023-04-02T21:29:53.834Z,11.57
2023-04-02T21:32:22.039Z,11.58
2023-04-02T21:34:48.991Z,11.59
2023-04-02T21:37:16.618Z,11.58
2023-04-02T21:39:43.247Z,11.55
2023-04-02T21:42:09.876Z,11.57
2023-04-02T21:44:36.484Z,11.57
2023-04-02T21:47:03.159Z,11.55
2023-04-02T21:49:29.788Z,11.55
2023-04-02T21:51:56.410Z,11.57
2023-04-02T21:54:23.043Z,11.57
2023-04-02T21:56:49.819Z,11.54
2023-04-02T21:59:16.502Z,11.52
2023-04-02T22:01:43.200Z,11.55
2023-04-02T22:04:09.872Z,11.55
2023-04-02T22:06:36.580Z,11.55
2023-04-02T22:09:03.202Z,11.52
2023-04-02T22:11:29.845Z,11.54
2023-04-02T22:13:56.480Z,11.54
2023-04-02T22:16:23.111Z,11.54
2023-04-02T22:18:49.770Z,11.54
2023-04-02T22:21:16.393Z,11.52
2023-04-02T22:23:43.000Z,11.52
2023-04-02T22:26:09.611Z,11.54
2023-04-02T22:28:36.210Z,11.52
2023-04-02T22:31:02.832Z,11.51
2023-04-02T22:33:29.514Z,11.54
2023-04-02T22:35:56.199Z,11.52
2023-04-02T22:38:22.851Z,11.50
2023-04-02T22:40:49.481Z,11.51
2023-04-02T22:43:16.112Z,11.51
2023-04-02T22:45:42.764Z,11.51
2023-04-02T22:48:09.406Z,11.48
2023-04-02T22:50:36.252Z,11.51
2023-04-02T22:53:02.978Z,11.51
2023-04-02T22:55:29.612Z,11.50
2023-04-02T22:57:56.230Z,11.50
2023-04-02T23:00:22.873Z,11.47
2023-04-02T23:02:49.521Z,11.50
2023-04-02T23:05:16.245Z,11.47
2023-04-02T23:07:42.890Z,11.50
2023-04-02T23:10:09.515Z,11.47
2023-04-02T23:12:36.135Z,11.47
2023-04-02T23:15:02.772Z,11.47
2023-04-02T23:17:29.452Z,11.51
2023-04-02T23:19:56.132Z,11.47
2023-04-02T23:22:22.766Z,11.48
2023-04-02T23:24:49.393Z,11.45
2023-04-02T23:27:16.029Z,11.47
2023-04-02T23:29:42.670Z,11.45
2023-04-02T23:32:09.287Z,11.45
2023-04-02T23:34:35.936Z,11.47
2023-04-02T23:37:02.570Z,11.47
2023-04-02T23:39:29.208Z,11.48
2023-04-02T23:41:55.829Z,11.45
2023-04-02T23:44:22.453Z,11.44
2023-04-02T23:46:49.149Z,11.44
2023-04-02T23:49:15.813Z,11.45
2023-04-02T23:51:42.433Z,11.41
2023-04-02T23:54:09.092Z,11.44
2023-04-02T23:56:35.758Z,11.44
2023-04-02T23:59:02.404Z,11.42
